Wesley Chapel, Florida
Current Conditions -  °F | °C
As of 12:15 PM on Sunday 21 Dec 2014 (Local Time) from KZPH Reporting Station
Broken Clouds Broken Clouds  
Wind Chill: 73°   Ceiling: 12000
Heat Index: 73°   Visibility: 10mi
Dew Point: 63°   Wind: 6mph
Humidity: 69%   Direction: 170°S
Pressure: 30.1"   Gusts: NA
Location:  28.24°N, 82.32°W
Report Text: KZPH 211615Z AUTO 17005KT 10SM BKN120 23/17 A3010 RMK AO2
Loading
Personal Weather Stations






























Interactive Weather Map New forecast layout! Learn more

10-Day Weather Forecast

Advertisements
Track Severe Weather on mobile